Accueil
METAR-TAF:

METAR-TAF

Aéroports :

Mardin, Turquie

latitude: 37-13-58N, longitude: 40-38-26E, altitude: 527 m

Observation

Le bulletin a été fait il y a 8 heures et 36 minutes, à 08:50 UTC
Vent 4 kt de nord, variant entre nord/nord-ouest et nord-est
Température 15°C
Humidité 44%
Pression 1018 hPa
Visibilité 10 km ou plus
pas de nuages en-dessous de 1500 mètres et pas de cumulonimbus.

METAR: LTCR 050850Z 36004KT 330V050 CAVOK 15/03 Q1018

Heure: 20:26 (17:26 UTC)

Prévision

Le bulletin a été fait il y a 3 heures et 46 minutes, à 13:40 UTC
Prévision valable du 05 à 15 UTC au 05 à 24 UTC
Vent 9 kt de nord
Visibilité 10 km ou plus
pas de nuages en-dessous de 1500 mètres et pas de cumulonimbus.

TAF: LTCR 051340Z 0515/0524 35009KT CAVOK

Observations et prévisions météorologiques de plus de 4000 aéroports (messages METAR et TAF).

Les stations disponibles sont représentées par des disques jaunes et rouges sur la carte.

Passer la souris dessus pour voir le nom de la station.

Cliquer dessus pour voir les observations et prévisions météorologiques.

Pour changer de carte: cliquez sur les boutons verts avec une croix noire pour zoomer, sur le bouton vert avec un tiret pour effectuer un zoom arrière, ou sur les flèches vertes pour les cartes adjacentes.


METAR-TAF: